Gilboa, New York
Current Conditions -  °F | °C
As of 3:51 AM on Thursday 23 Oct 2014 (Local Time) from KALB Reporting Station
Moderate Rain Moderate Rain  
Wind Chill:   Ceiling: 2600
Heat Index:   Visibility: 5mi
Dew Point:   Wind: 8mph
Humidity: 86%   Direction: 10°N
Pressure: 29.9"   Gusts: NA
Location:  42.4°N, 74.45°W
Report Text: KALB 230751Z 01007KT 5SM RA BR FEW010 OVC026 09/07 A2990 RMK AO2 SLP125 P0016 T00890067
Loading
Personal Weather Stations






























Interactive Weather Map
Tropical Storm Tracking
New forecast layout! Learn more

10-Day Weather Forecast

Advertisements
Track Severe Weather on mobile